Cam Ranh Airport
VVCR : now visible

Airfield :











YOU CAN JOIN US ON...

 
LOGIN :

Register | Disclaimer

   EN    FR    IT 

 









Legend :    VFR   Marginal VFR   IFR   Intensive IFR   Very Intensive IFR
Visi :
Ceiling :
>= 8 km
>= 3000ft
5 to 8 km
1000 to 3000 ft
1500m to 5 km
500 to 1000 ft
800 to 1500m
200 to 500 ft
< 800m
< 200 ft
Symbols :   Thunderstorms  Fog  Heavy snow  Heavy precipitations  Wind > 20 kt






- Airport Elevation : 40 ft
- IATA code : CXR


VVCR - Cam Ranh

CURRENT METAR :
  • 021600Z 32003KT 9999 FEW015 27/23 Q1013 NOSIG

EXPIRED METARs :
  • 021530Z 32004KT 9999 FEW015 27/25 Q1014 NOSIG
  • 021500Z 34003KT 280V360 9999 FEW015 28/26 Q1013 NOSIG
  • 021430Z 02003KT 9999 FEW015 29/26 Q1013 NOSIG
  • 021400Z 02004KT 9999 FEW015 29/26 Q1013 NOSIG
  • 021330Z 04004KT 9999 FEW015 29/26 Q1013 NOSIG

TAF TAF VVCR
Valid from the 02 at 12:00 until the 03 at 12:00 UTC


021100Z 0212/0312 09006KT 9999 FEW015



MET'MAP, your aeronautical weather chart ! - Copyright ORBIFLY December 2007 - Disclaimer

ORBIFLY MET'MAP TEAM :

Programming & Development : Alexandra Zaïnal
Concept & original design : Baudouin d'Aumeries
Assistance for programming : Marc-Olivier Méhu
Technical & hardware support : Manuel Goepfert

Contact : metmap@orbifly.com




SOURCES & CREDITS :

   NOAA       Earth
Advisory